This is the latest recevied weather packets stored in our database for station/object AA7F. If no packets are shown the sender has not sent any weather packets the latest 10 day(s).
| Time | Temp. | Humidity | Pressure | Rain* | Wind** | Luminosity | Snow |
|---|---|---|---|---|---|---|---|
| 1777267852 | 6.67° C | 72% | 1011.4 hPa | 0 mm | - | 0 W/m² | - |
| 1777267549 | 6.11° C | 74% | 1011.2 hPa | 0 mm | - | 0 W/m² | - |
| 1777267246 | 6.67° C | 73% | 1011.1 hPa | 0 mm | - | 0 W/m² | - |
| 1777266942 | 8.33° C | 67% | 1011.1 hPa | 0 mm | - | 0 W/m² | - |
| 1777266640 | 8.89° C | 62% | 1011.2 hPa | 0 mm | - | 0 W/m² | - |
| 1777266337 | 8.89° C | 62% | 1011.1 hPa | 0 mm | - | 0 W/m² | - |
| 1777266032 | 8.89° C | 61% | 1011 hPa | 0 mm | - | 0 W/m² | - |
| 1777265727 | 8.89° C | 61% | 1010.9 hPa | 0 mm | - | 0 W/m² | - |
| 1777265423 | 8.89° C | 63% | 1011 hPa | 0 mm | - | 0 W/m² | - |
| 1777265120 | 8.89° C | 64% | 1011 hPa | 0 mm | - | 0 W/m² | - |
| 1777264817 | 8.89° C | 63% | 1011 hPa | 0 mm | - | 0 W/m² | - |
| 1777264514 | 8.89° C | 62% | 1010.9 hPa | 0 mm | - | 0 W/m² | - |
| 1777264210 | 8.89° C | 62% | 1011.2 hPa | 0 mm | - | 0 W/m² | - |
| 1777263903 | 9.44° C | 61% | 1011.1 hPa | 0 mm | - | 0 W/m² | - |
| 1777263600 | 8.89° C | 60% | 1010.9 hPa | 0 mm | - | 0 W/m² | - |
| 1777263296 | 9.44° C | 60% | 1010.9 hPa | 0 mm | - | 0 W/m² | - |
| 1777262993 | 9.44° C | 58% | 1011 hPa | 0 mm | - | 0 W/m² | - |
| 1777262690 | 9.44° C | 57% | 1010.9 hPa | 0 mm | - | 0 W/m² | - |
| 1777262386 | 9.44° C | 58% | 1011 hPa | 0 mm | - | 0 W/m² | - |
| 1777262083 | 9.44° C | 58% | 1010.7 hPa | 0 mm | - | 0 W/m² | - |
| 1777261780 | 10° C | 57% | 1010.8 hPa | 0 mm | - | 0 W/m² | - |
| 1777261476 | 10° C | 55% | 1010.6 hPa | 0 mm | - | 0 W/m² | - |
| 1777261174 | 10° C | 54% | 1010.6 hPa | 0 mm | - | 0 W/m² | - |
| 1777260873 | 10° C | 56% | 1010.4 hPa | 0 mm | - | 0 W/m² | - |
| 1777260569 | 10.56° C | 53% | 1010.2 hPa | 0 mm | - | 0 W/m² | - |
* Rain latest hour (hover to see other rain measurements)
** Current wind speed in m/s (hover to see current wind gust speed)